sensor_id;sensor_type;location;lat;lon;timestamp;P1;durP1;ratioP1;P2;durP2;ratioP2
16998;SDS011;10211;49.476;11.010;2022-10-22T00:02:01;3.77;;;3.37;;
16998;SDS011;10211;49.476;11.010;2022-10-22T00:04:29;4.57;;;3.33;;
16998;SDS011;10211;49.476;11.010;2022-10-22T00:06:57;3.97;;;3.20;;
16998;SDS011;10211;49.476;11.010;2022-10-22T00:09:24;5.73;;;3.03;;
16998;SDS011;10211;49.476;11.010;2022-10-22T00:11:50;3.40;;;3.10;;
16998;SDS011;10211;49.476;11.010;2022-10-22T00:14:17;5.43;;;3.53;;
16998;SDS011;10211;49.476;11.010;2022-10-22T00:16:44;6.53;;;3.25;;
16998;SDS011;10211;49.476;11.010;2022-10-22T00:19:11;4.60;;;3.00;;
16998;SDS011;10211;49.476;11.010;2022-10-22T00:21:40;6.47;;;3.43;;
16998;SDS011;10211;49.476;11.010;2022-10-22T00:24:07;3.30;;;3.00;;
16998;SDS011;10211;49.476;11.010;2022-10-22T00:26:35;4.33;;;3.10;;
16998;SDS011;10211;49.476;11.010;2022-10-22T00:29:03;3.80;;;3.40;;
16998;SDS011;10211;49.476;11.010;2022-10-22T00:31:30;6.27;;;3.37;;
16998;SDS011;10211;49.476;11.010;2022-10-22T00:33:57;8.33;;;3.57;;
16998;SDS011;10211;49.476;11.010;2022-10-22T00:36:26;3.97;;;2.80;;
16998;SDS011;10211;49.476;11.010;2022-10-22T00:38:54;3.70;;;3.03;;
16998;SDS011;10211;49.476;11.010;2022-10-22T00:41:22;3.97;;;2.70;;
16998;SDS011;10211;49.476;11.010;2022-10-22T00:43:53;6.47;;;3.40;;
16998;SDS011;10211;49.476;11.010;2022-10-22T00:46:22;9.27;;;3.77;;
16998;SDS011;10211;49.476;11.010;2022-10-22T00:48:48;4.40;;;3.20;;
16998;SDS011;10211;49.476;11.010;2022-10-22T00:51:16;5.13;;;3.43;;
16998;SDS011;10211;49.476;11.010;2022-10-22T00:53:47;4.23;;;3.17;;
16998;SDS011;10211;49.476;11.010;2022-10-22T00:56:19;5.03;;;3.37;;
16998;SDS011;10211;49.476;11.010;2022-10-22T00:58:46;4.80;;;3.47;;
16998;SDS011;10211;49.476;11.010;2022-10-22T01:01:18;5.80;;;3.50;;
16998;SDS011;10211;49.476;11.010;2022-10-22T01:03:49;12.97;;;4.20;;
16998;SDS011;10211;49.476;11.010;2022-10-22T01:06:17;6.67;;;4.00;;
16998;SDS011;10211;49.476;11.010;2022-10-22T01:08:49;7.30;;;3.53;;
16998;SDS011;10211;49.476;11.010;2022-10-22T01:11:25;6.33;;;4.00;;
16998;SDS011;10211;49.476;11.010;2022-10-22T01:13:59;5.30;;;3.30;;
16998;SDS011;10211;49.476;11.010;2022-10-22T01:16:36;6.00;;;3.80;;
16998;SDS011;10211;49.476;11.010;2022-10-22T01:19:13;5.87;;;3.60;;
16998;SDS011;10211;49.476;11.010;2022-10-22T01:21:54;7.30;;;3.80;;
16998;SDS011;10211;49.476;11.010;2022-10-22T01:24:34;5.50;;;4.33;;
16998;SDS011;10211;49.476;11.010;2022-10-22T01:27:18;10.73;;;4.03;;
16998;SDS011;10211;49.476;11.010;2022-10-22T01:29:57;4.90;;;3.63;;
16998;SDS011;10211;49.476;11.010;2022-10-22T01:32:38;7.60;;;3.87;;
16998;SDS011;10211;49.476;11.010;2022-10-22T01:35:09;4.63;;;3.80;;
16998;SDS011;10211;49.476;11.010;2022-10-22T01:37:42;7.70;;;3.27;;
16998;SDS011;10211;49.476;11.010;2022-10-22T01:40:14;2.50;;;2.10;;
16998;SDS011;10211;49.476;11.010;2022-10-22T01:42:41;4.63;;;2.67;;
16998;SDS011;10211;49.476;11.010;2022-10-22T01:45:20;2.50;;;2.27;;
16998;SDS011;10211;49.476;11.010;2022-10-22T01:47:51;8.40;;;2.47;;
16998;SDS011;10211;49.476;11.010;2022-10-22T01:50:33;1.83;;;1.60;;
16998;SDS011;10211;49.476;11.010;2022-10-22T01:53:18;2.20;;;1.87;;
16998;SDS011;10211;49.476;11.010;2022-10-22T01:58:44;3.57;;;1.47;;
16998;SDS011;10211;49.476;11.010;2022-10-22T02:01:22;5.50;;;1.57;;
16998;SDS011;10211;49.476;11.010;2022-10-22T02:03:54;1.47;;;1.37;;
16998;SDS011;10211;49.476;11.010;2022-10-22T02:06:26;1.40;;;1.20;;
16998;SDS011;10211;49.476;11.010;2022-10-22T02:08:56;3.43;;;1.70;;
16998;SDS011;10211;49.476;11.010;2022-10-22T02:11:25;1.53;;;1.33;;
16998;SDS011;10211;49.476;11.010;2022-10-22T02:13:53;1.30;;;1.20;;
16998;SDS011;10211;49.476;11.010;2022-10-22T02:16:26;1.83;;;1.20;;
16998;SDS011;10211;49.476;11.010;2022-10-22T02:18:57;1.73;;;1.20;;
16998;SDS011;10211;49.476;11.010;2022-10-22T02:21:28;2.07;;;1.60;;
16998;SDS011;10211;49.476;11.010;2022-10-22T02:23:56;9.93;;;1.80;;
16998;SDS011;10211;49.476;11.010;2022-10-22T02:26:26;5.30;;;1.67;;
16998;SDS011;10211;49.476;11.010;2022-10-22T02:28:57;1.00;;;0.90;;
16998;SDS011;10211;49.476;11.010;2022-10-22T02:31:31;1.67;;;1.20;;
16998;SDS011;10211;49.476;11.010;2022-10-22T02:34:02;4.50;;;1.30;;
16998;SDS011;10211;49.476;11.010;2022-10-22T02:36:34;1.07;;;0.97;;
16998;SDS011;10211;49.476;11.010;2022-10-22T02:39:04;2.03;;;1.27;;
16998;SDS011;10211;49.476;11.010;2022-10-22T02:41:34;2.87;;;1.40;;
16998;SDS011;10211;49.476;11.010;2022-10-22T02:44:05;2.67;;;1.40;;
16998;SDS011;10211;49.476;11.010;2022-10-22T02:46:37;2.50;;;1.30;;
16998;SDS011;10211;49.476;11.010;2022-10-22T02:49:05;5.90;;;1.33;;
16998;SDS011;10211;49.476;11.010;2022-10-22T02:51:33;2.07;;;1.30;;
16998;SDS011;10211;49.476;11.010;2022-10-22T02:54:00;1.23;;;1.10;;
16998;SDS011;10211;49.476;11.010;2022-10-22T02:56:34;2.03;;;1.10;;
16998;SDS011;10211;49.476;11.010;2022-10-22T02:59:08;2.30;;;1.33;;
16998;SDS011;10211;49.476;11.010;2022-10-22T03:01:35;1.73;;;1.40;;
16998;SDS011;10211;49.476;11.010;2022-10-22T03:04:03;0.90;;;0.90;;
16998;SDS011;10211;49.476;11.010;2022-10-22T03:06:32;2.20;;;1.00;;
16998;SDS011;10211;49.476;11.010;2022-10-22T03:09:00;1.20;;;1.10;;
16998;SDS011;10211;49.476;11.010;2022-10-22T03:11:27;1.50;;;0.90;;
16998;SDS011;10211;49.476;11.010;2022-10-22T03:13:54;2.33;;;1.17;;
16998;SDS011;10211;49.476;11.010;2022-10-22T03:16:21;2.03;;;0.90;;
16998;SDS011;10211;49.476;11.010;2022-10-22T03:18:47;0.93;;;0.80;;
16998;SDS011;10211;49.476;11.010;2022-10-22T03:21:20;2.23;;;0.90;;
16998;SDS011;10211;49.476;11.010;2022-10-22T03:23:53;2.87;;;1.00;;
16998;SDS011;10211;49.476;11.010;2022-10-22T03:26:22;1.47;;;1.30;;
16998;SDS011;10211;49.476;11.010;2022-10-22T03:28:49;3.90;;;1.10;;
16998;SDS011;10211;49.476;11.010;2022-10-22T03:31:16;1.30;;;1.07;;
16998;SDS011;10211;49.476;11.010;2022-10-22T03:33:43;5.37;;;1.07;;
16998;SDS011;10211;49.476;11.010;2022-10-22T03:36:10;1.47;;;1.23;;
16998;SDS011;10211;49.476;11.010;2022-10-22T03:38:39;2.23;;;1.20;;
16998;SDS011;10211;49.476;11.010;2022-10-22T03:41:06;1.23;;;0.97;;
16998;SDS011;10211;49.476;11.010;2022-10-22T03:43:46;0.83;;;0.80;;
16998;SDS011;10211;49.476;11.010;2022-10-22T03:46:14;0.90;;;0.90;;
16998;SDS011;10211;49.476;11.010;2022-10-22T03:48:40;1.70;;;0.93;;
16998;SDS011;10211;49.476;11.010;2022-10-22T03:51:07;3.43;;;1.47;;
16998;SDS011;10211;49.476;11.010;2022-10-22T03:53:36;1.63;;;1.37;;
16998;SDS011;10211;49.476;11.010;2022-10-22T03:56:06;2.60;;;1.43;;
16998;SDS011;10211;49.476;11.010;2022-10-22T03:58:34;2.80;;;1.17;;
16998;SDS011;10211;49.476;11.010;2022-10-22T04:01:03;4.00;;;1.40;;
16998;SDS011;10211;49.476;11.010;2022-10-22T04:03:30;1.27;;;1.13;;
16998;SDS011;10211;49.476;11.010;2022-10-22T04:05:59;5.43;;;1.60;;
16998;SDS011;10211;49.476;11.010;2022-10-22T04:08:27;1.80;;;1.40;;
16998;SDS011;10211;49.476;11.010;2022-10-22T04:10:55;3.47;;;1.67;;
16998;SDS011;10211;49.476;11.010;2022-10-22T04:13:22;3.50;;;1.73;;
16998;SDS011;10211;49.476;11.010;2022-10-22T04:15:49;3.00;;;1.90;;
16998;SDS011;10211;49.476;11.010;2022-10-22T04:18:16;1.97;;;1.33;;
16998;SDS011;10211;49.476;11.010;2022-10-22T04:20:43;1.17;;;1.03;;
16998;SDS011;10211;49.476;11.010;2022-10-22T04:23:10;3.90;;;1.90;;
16998;SDS011;10211;49.476;11.010;2022-10-22T04:25:37;1.40;;;1.30;;
16998;SDS011;10211;49.476;11.010;2022-10-22T04:28:06;3.40;;;1.20;;
16998;SDS011;10211;49.476;11.010;2022-10-22T04:30:33;5.20;;;1.30;;
16998;SDS011;10211;49.476;11.010;2022-10-22T04:33:00;2.07;;;1.10;;
16998;SDS011;10211;49.476;11.010;2022-10-22T04:35:28;0.73;;;0.73;;
16998;SDS011;10211;49.476;11.010;2022-10-22T04:37:54;1.07;;;0.90;;
16998;SDS011;10211;49.476;11.010;2022-10-22T04:40:21;0.97;;;0.93;;
16998;SDS011;10211;49.476;11.010;2022-10-22T04:43:04;1.63;;;1.10;;
16998;SDS011;10211;49.476;11.010;2022-10-22T04:45:35;2.60;;;2.30;;
16998;SDS011;10211;49.476;11.010;2022-10-22T04:48:02;2.03;;;0.97;;
16998;SDS011;10211;49.476;11.010;2022-10-22T04:50:28;4.80;;;1.10;;
16998;SDS011;10211;49.476;11.010;2022-10-22T04:52:55;1.60;;;0.83;;
16998;SDS011;10211;49.476;11.010;2022-10-22T04:55:34;3.30;;;1.17;;
16998;SDS011;10211;49.476;11.010;2022-10-22T04:58:02;1.60;;;1.03;;
16998;SDS011;10211;49.476;11.010;2022-10-22T05:00:29;0.93;;;0.93;;
16998;SDS011;10211;49.476;11.010;2022-10-22T05:02:58;0.77;;;0.77;;
16998;SDS011;10211;49.476;11.010;2022-10-22T05:05:25;2.60;;;1.20;;
16998;SDS011;10211;49.476;11.010;2022-10-22T05:07:53;3.70;;;1.43;;
16998;SDS011;10211;49.476;11.010;2022-10-22T05:10:20;0.90;;;0.90;;
16998;SDS011;10211;49.476;11.010;2022-10-22T05:12:48;1.97;;;1.17;;
16998;SDS011;10211;49.476;11.010;2022-10-22T05:15:16;1.40;;;1.00;;
16998;SDS011;10211;49.476;11.010;2022-10-22T05:17:42;2.13;;;1.33;;
16998;SDS011;10211;49.476;11.010;2022-10-22T05:20:11;2.57;;;1.50;;
16998;SDS011;10211;49.476;11.010;2022-10-22T05:22:38;3.50;;;1.40;;
16998;SDS011;10211;49.476;11.010;2022-10-22T05:25:05;2.27;;;1.57;;
16998;SDS011;10211;49.476;11.010;2022-10-22T05:27:33;2.60;;;1.53;;
16998;SDS011;10211;49.476;11.010;2022-10-22T05:30:00;3.50;;;1.10;;
16998;SDS011;10211;49.476;11.010;2022-10-22T05:32:26;4.33;;;1.40;;
16998;SDS011;10211;49.476;11.010;2022-10-22T05:34:53;2.00;;;1.60;;
16998;SDS011;10211;49.476;11.010;2022-10-22T05:37:32;3.33;;;1.40;;
16998;SDS011;10211;49.476;11.010;2022-10-22T05:39:59;1.80;;;1.40;;
16998;SDS011;10211;49.476;11.010;2022-10-22T05:45:18;4.00;;;1.10;;
16998;SDS011;10211;49.476;11.010;2022-10-22T05:47:45;4.63;;;1.50;;
16998;SDS011;10211;49.476;11.010;2022-10-22T05:50:12;6.53;;;1.93;;
16998;SDS011;10211;49.476;11.010;2022-10-22T05:52:40;1.53;;;1.40;;
16998;SDS011;10211;49.476;11.010;2022-10-22T05:55:07;2.93;;;1.30;;
16998;SDS011;10211;49.476;11.010;2022-10-22T05:57:34;1.70;;;1.20;;
16998;SDS011;10211;49.476;11.010;2022-10-22T06:00:01;1.57;;;1.47;;
16998;SDS011;10211;49.476;11.010;2022-10-22T06:02:30;1.87;;;1.57;;
16998;SDS011;10211;49.476;11.010;2022-10-22T06:04:57;1.47;;;1.10;;
16998;SDS011;10211;49.476;11.010;2022-10-22T06:07:24;3.97;;;1.40;;
16998;SDS011;10211;49.476;11.010;2022-10-22T06:09:53;1.50;;;1.33;;
16998;SDS011;10211;49.476;11.010;2022-10-22T06:12:20;1.90;;;1.40;;
16998;SDS011;10211;49.476;11.010;2022-10-22T06:14:47;1.37;;;1.23;;
16998;SDS011;10211;49.476;11.010;2022-10-22T06:17:14;1.60;;;1.30;;
16998;SDS011;10211;49.476;11.010;2022-10-22T06:19:43;3.07;;;1.83;;
16998;SDS011;10211;49.476;11.010;2022-10-22T06:22:10;5.03;;;1.70;;
16998;SDS011;10211;49.476;11.010;2022-10-22T06:24:37;3.23;;;1.57;;
16998;SDS011;10211;49.476;11.010;2022-10-22T06:27:13;2.10;;;1.73;;
16998;SDS011;10211;49.476;11.010;2022-10-22T06:29:50;3.87;;;2.07;;
16998;SDS011;10211;49.476;11.010;2022-10-22T06:32:38;5.40;;;1.97;;
16998;SDS011;10211;49.476;11.010;2022-10-22T06:35:11;5.43;;;2.20;;
16998;SDS011;10211;49.476;11.010;2022-10-22T06:37:38;2.40;;;1.90;;
16998;SDS011;10211;49.476;11.010;2022-10-22T06:40:09;3.20;;;1.80;;
16998;SDS011;10211;49.476;11.010;2022-10-22T06:42:44;2.47;;;2.03;;
16998;SDS011;10211;49.476;11.010;2022-10-22T06:45:15;2.83;;;2.00;;
16998;SDS011;10211;49.476;11.010;2022-10-22T06:47:57;5.80;;;3.07;;
16998;SDS011;10211;49.476;11.010;2022-10-22T06:53:15;4.30;;;2.57;;
16998;SDS011;10211;49.476;11.010;2022-10-22T06:55:42;4.40;;;3.00;;
16998;SDS011;10211;49.476;11.010;2022-10-22T06:58:11;3.13;;;2.10;;
16998;SDS011;10211;49.476;11.010;2022-10-22T07:00:38;2.57;;;2.37;;
16998;SDS011;10211;49.476;11.010;2022-10-22T07:03:05;5.43;;;2.47;;
16998;SDS011;10211;49.476;11.010;2022-10-22T07:05:35;4.67;;;2.40;;
16998;SDS011;10211;49.476;11.010;2022-10-22T07:08:02;3.57;;;2.70;;
16998;SDS011;10211;49.476;11.010;2022-10-22T07:10:29;2.40;;;1.90;;
16998;SDS011;10211;49.476;11.010;2022-10-22T07:12:56;7.63;;;2.27;;
16998;SDS011;10211;49.476;11.010;2022-10-22T07:15:25;2.60;;;1.97;;
16998;SDS011;10211;49.476;11.010;2022-10-22T07:17:52;5.07;;;2.50;;
16998;SDS011;10211;49.476;11.010;2022-10-22T07:20:19;3.03;;;2.23;;
16998;SDS011;10211;49.476;11.010;2022-10-22T07:22:46;4.97;;;2.23;;
16998;SDS011;10211;49.476;11.010;2022-10-22T07:25:13;3.50;;;2.50;;
16998;SDS011;10211;49.476;11.010;2022-10-22T07:27:40;2.37;;;1.87;;
16998;SDS011;10211;49.476;11.010;2022-10-22T07:30:07;2.60;;;2.10;;
16998;SDS011;10211;49.476;11.010;2022-10-22T07:32:36;3.70;;;2.20;;
16998;SDS011;10211;49.476;11.010;2022-10-22T07:35:05;3.87;;;2.33;;
16998;SDS011;10211;49.476;11.010;2022-10-22T07:37:32;2.23;;;2.00;;
16998;SDS011;10211;49.476;11.010;2022-10-22T07:39:59;1.83;;;1.70;;
16998;SDS011;10211;49.476;11.010;2022-10-22T07:42:26;6.87;;;2.20;;
16998;SDS011;10211;49.476;11.010;2022-10-22T07:44:53;3.03;;;2.03;;
16998;SDS011;10211;49.476;11.010;2022-10-22T07:47:28;4.80;;;1.80;;
16998;SDS011;10211;49.476;11.010;2022-10-22T07:49:56;1.87;;;1.70;;
16998;SDS011;10211;49.476;11.010;2022-10-22T07:52:23;1.60;;;1.50;;
16998;SDS011;10211;49.476;11.010;2022-10-22T07:54:50;4.20;;;1.97;;
16998;SDS011;10211;49.476;11.010;2022-10-22T08:00:03;2.13;;;1.83;;
16998;SDS011;10211;49.476;11.010;2022-10-22T08:02:31;4.47;;;1.87;;
16998;SDS011;10211;49.476;11.010;2022-10-22T08:05:00;5.17;;;1.80;;
16998;SDS011;10211;49.476;11.010;2022-10-22T08:07:27;4.47;;;1.73;;
16998;SDS011;10211;49.476;11.010;2022-10-22T08:09:54;2.23;;;1.57;;
16998;SDS011;10211;49.476;11.010;2022-10-22T08:12:21;2.07;;;1.30;;
16998;SDS011;10211;49.476;11.010;2022-10-22T08:14:47;2.07;;;1.80;;
16998;SDS011;10211;49.476;11.010;2022-10-22T08:17:14;2.27;;;1.43;;
16998;SDS011;10211;49.476;11.010;2022-10-22T08:19:41;1.10;;;1.10;;
16998;SDS011;10211;49.476;11.010;2022-10-22T08:22:10;1.80;;;1.40;;
16998;SDS011;10211;49.476;11.010;2022-10-22T08:24:37;2.20;;;1.20;;
16998;SDS011;10211;49.476;11.010;2022-10-22T08:27:04;3.07;;;1.20;;
16998;SDS011;10211;49.476;11.010;2022-10-22T08:29:31;3.63;;;1.20;;
16998;SDS011;10211;49.476;11.010;2022-10-22T08:31:57;4.73;;;1.00;;
16998;SDS011;10211;49.476;11.010;2022-10-22T08:34:26;1.03;;;0.90;;
16998;SDS011;10211;49.476;11.010;2022-10-22T08:36:53;1.23;;;1.00;;
16998;SDS011;10211;49.476;11.010;2022-10-22T08:39:22;1.40;;;1.20;;
16998;SDS011;10211;49.476;11.010;2022-10-22T08:41:52;0.93;;;0.93;;
16998;SDS011;10211;49.476;11.010;2022-10-22T08:47:25;3.00;;;1.90;;
16998;SDS011;10211;49.476;11.010;2022-10-22T08:50:03;3.17;;;1.60;;
16998;SDS011;10211;49.476;11.010;2022-10-22T08:52:34;4.33;;;1.50;;
16998;SDS011;10211;49.476;11.010;2022-10-22T08:55:08;2.17;;;1.27;;
16998;SDS011;10211;49.476;11.010;2022-10-22T08:57:42;3.03;;;2.07;;
16998;SDS011;10211;49.476;11.010;2022-10-22T09:00:17;2.20;;;1.03;;
16998;SDS011;10211;49.476;11.010;2022-10-22T09:02:50;3.03;;;1.10;;
16998;SDS011;10211;49.476;11.010;2022-10-22T09:05:29;4.17;;;1.13;;
16998;SDS011;10211;49.476;11.010;2022-10-22T09:08:03;1.03;;;0.87;;
16998;SDS011;10211;49.476;11.010;2022-10-22T09:10:32;4.43;;;0.90;;
16998;SDS011;10211;49.476;11.010;2022-10-22T09:13:03;2.23;;;1.17;;
16998;SDS011;10211;49.476;11.010;2022-10-22T09:15:30;4.10;;;1.00;;
16998;SDS011;10211;49.476;11.010;2022-10-22T09:17:58;1.03;;;0.80;;
16998;SDS011;10211;49.476;11.010;2022-10-22T09:20:33;0.90;;;0.90;;
16998;SDS011;10211;49.476;11.010;2022-10-22T09:23:11;1.43;;;1.33;;
16998;SDS011;10211;49.476;11.010;2022-10-22T09:25:57;1.30;;;1.20;;
16998;SDS011;10211;49.476;11.010;2022-10-22T09:28:38;0.90;;;0.90;;
16998;SDS011;10211;49.476;11.010;2022-10-22T09:31:08;2.40;;;1.07;;
16998;SDS011;10211;49.476;11.010;2022-10-22T09:33:36;1.33;;;1.27;;
16998;SDS011;10211;49.476;11.010;2022-10-22T09:36:04;0.90;;;0.90;;
16998;SDS011;10211;49.476;11.010;2022-10-22T09:38:33;1.43;;;0.83;;
16998;SDS011;10211;49.476;11.010;2022-10-22T09:41:07;1.17;;;0.80;;
16998;SDS011;10211;49.476;11.010;2022-10-22T09:43:34;0.77;;;0.77;;
16998;SDS011;10211;49.476;11.010;2022-10-22T09:46:03;3.60;;;0.70;;
16998;SDS011;10211;49.476;11.010;2022-10-22T09:48:32;1.20;;;0.63;;
16998;SDS011;10211;49.476;11.010;2022-10-22T09:51:03;0.83;;;0.50;;
16998;SDS011;10211;49.476;11.010;2022-10-22T09:53:34;1.30;;;0.83;;
16998;SDS011;10211;49.476;11.010;2022-10-22T09:56:08;0.70;;;0.50;;
16998;SDS011;10211;49.476;11.010;2022-10-22T09:58:42;0.77;;;0.67;;
16998;SDS011;10211;49.476;11.010;2022-10-22T10:01:15;1.77;;;0.57;;
16998;SDS011;10211;49.476;11.010;2022-10-22T10:03:44;0.77;;;0.77;;
16998;SDS011;10211;49.476;11.010;2022-10-22T10:06:16;3.33;;;0.70;;
16998;SDS011;10211;49.476;11.010;2022-10-22T10:08:43;1.50;;;0.83;;
16998;SDS011;10211;49.476;11.010;2022-10-22T10:11:15;0.93;;;0.67;;
16998;SDS011;10211;49.476;11.010;2022-10-22T10:13:49;0.97;;;0.60;;
16998;SDS011;10211;49.476;11.010;2022-10-22T10:16:25;0.90;;;0.57;;
16998;SDS011;10211;49.476;11.010;2022-10-22T10:19:03;3.60;;;0.83;;
16998;SDS011;10211;49.476;11.010;2022-10-22T10:21:44;1.00;;;0.60;;
16998;SDS011;10211;49.476;11.010;2022-10-22T10:24:21;2.90;;;1.70;;
16998;SDS011;10211;49.476;11.010;2022-10-22T10:26:57;1.95;;;1.20;;
16998;SDS011;10211;49.476;11.010;2022-10-22T10:29:32;0.70;;;0.50;;
16998;SDS011;10211;49.476;11.010;2022-10-22T10:32:14;2.38;;;0.60;;
16998;SDS011;10211;49.476;11.010;2022-10-22T10:34:55;0.30;;;0.30;;
16998;SDS011;10211;49.476;11.010;2022-10-22T10:37:33;1.40;;;0.50;;
16998;SDS011;10211;49.476;11.010;2022-10-22T10:40:18;0.50;;;0.50;;
16998;SDS011;10211;49.476;11.010;2022-10-22T10:42:54;2.22;;;1.25;;
16998;SDS011;10211;49.476;11.010;2022-10-22T10:45:25;1.65;;;0.40;;
16998;SDS011;10211;49.476;11.010;2022-10-22T10:48:00;1.35;;;0.47;;
16998;SDS011;10211;49.476;11.010;2022-10-22T10:50:46;2.05;;;0.55;;
16998;SDS011;10211;49.476;11.010;2022-10-22T10:53:20;2.03;;;0.60;;
16998;SDS011;10211;49.476;11.010;2022-10-22T10:55:56;2.03;;;0.40;;
16998;SDS011;10211;49.476;11.010;2022-10-22T10:58:33;1.27;;;0.38;;
16998;SDS011;10211;49.476;11.010;2022-10-22T11:01:09;0.63;;;0.40;;
16998;SDS011;10211;49.476;11.010;2022-10-22T11:03:54;0.43;;;0.38;;
16998;SDS011;10211;49.476;11.010;2022-10-22T11:06:31;1.00;;;0.50;;
16998;SDS011;10211;49.476;11.010;2022-10-22T11:09:00;0.82;;;0.40;;
16998;SDS011;10211;49.476;11.010;2022-10-22T11:11:31;0.85;;;0.57;;
16998;SDS011;10211;49.476;11.010;2022-10-22T11:14:08;0.95;;;0.65;;
16998;SDS011;10211;49.476;11.010;2022-10-22T11:16:41;0.45;;;0.40;;
16998;SDS011;10211;49.476;11.010;2022-10-22T11:19:15;1.80;;;0.60;;
16998;SDS011;10211;49.476;11.010;2022-10-22T11:21:46;10.30;;;1.50;;
16998;SDS011;10211;49.476;11.010;2022-10-22T11:24:19;1.60;;;0.63;;
16998;SDS011;10211;49.476;11.010;2022-10-22T11:26:52;3.10;;;0.60;;
16998;SDS011;10211;49.476;11.010;2022-10-22T11:29:26;1.00;;;0.60;;
16998;SDS011;10211;49.476;11.010;2022-10-22T11:31:56;0.57;;;0.57;;
16998;SDS011;10211;49.476;11.010;2022-10-22T11:34:26;2.63;;;0.73;;
16998;SDS011;10211;49.476;11.010;2022-10-22T11:36:59;0.70;;;0.63;;
16998;SDS011;10211;49.476;11.010;2022-10-22T11:39:29;3.80;;;0.73;;
16998;SDS011;10211;49.476;11.010;2022-10-22T11:42:01;1.13;;;0.40;;
16998;SDS011;10211;49.476;11.010;2022-10-22T11:44:33;2.67;;;0.37;;
16998;SDS011;10211;49.476;11.010;2022-10-22T11:47:16;0.60;;;0.60;;
16998;SDS011;10211;49.476;11.010;2022-10-22T11:49:45;1.80;;;0.50;;
16998;SDS011;10211;49.476;11.010;2022-10-22T11:52:22;1.03;;;0.50;;
16998;SDS011;10211;49.476;11.010;2022-10-22T11:54:55;0.63;;;0.40;;
16998;SDS011;10211;49.476;11.010;2022-10-22T11:57:26;1.23;;;0.50;;
16998;SDS011;10211;49.476;11.010;2022-10-22T11:59:57;5.63;;;0.80;;
16998;SDS011;10211;49.476;11.010;2022-10-22T12:02:35;2.30;;;0.70;;
16998;SDS011;10211;49.476;11.010;2022-10-22T12:08:00;3.70;;;0.50;;
16998;SDS011;10211;49.476;11.010;2022-10-22T12:13:51;0.40;;;0.40;;
16998;SDS011;10211;49.476;11.010;2022-10-22T12:16:35;1.90;;;0.50;;
16998;SDS011;10211;49.476;11.010;2022-10-22T12:19:04;1.77;;;0.73;;
16998;SDS011;10211;49.476;11.010;2022-10-22T12:21:38;1.60;;;0.53;;
16998;SDS011;10211;49.476;11.010;2022-10-22T12:24:08;2.53;;;0.50;;
16998;SDS011;10211;49.476;11.010;2022-10-22T12:26:45;3.97;;;1.10;;
16998;SDS011;10211;49.476;11.010;2022-10-22T12:29:14;3.53;;;0.60;;
16998;SDS011;10211;49.476;11.010;2022-10-22T12:31:44;0.83;;;0.70;;
16998;SDS011;10211;49.476;11.010;2022-10-22T12:34:14;0.50;;;0.50;;
16998;SDS011;10211;49.476;11.010;2022-10-22T12:36:43;4.87;;;0.70;;
16998;SDS011;10211;49.476;11.010;2022-10-22T12:39:14;1.40;;;0.60;;
16998;SDS011;10211;49.476;11.010;2022-10-22T12:41:44;2.83;;;0.73;;
16998;SDS011;10211;49.476;11.010;2022-10-22T12:44:12;1.93;;;0.60;;
16998;SDS011;10211;49.476;11.010;2022-10-22T12:46:41;1.67;;;0.63;;
16998;SDS011;10211;49.476;11.010;2022-10-22T12:49:13;0.30;;;0.30;;
16998;SDS011;10211;49.476;11.010;2022-10-22T12:51:43;1.70;;;0.53;;
16998;SDS011;10211;49.476;11.010;2022-10-22T12:54:14;2.20;;;0.80;;
16998;SDS011;10211;49.476;11.010;2022-10-22T12:56:49;2.10;;;0.70;;
16998;SDS011;10211;49.476;11.010;2022-10-22T12:59:18;1.23;;;0.53;;
16998;SDS011;10211;49.476;11.010;2022-10-22T13:01:49;1.17;;;0.63;;
16998;SDS011;10211;49.476;11.010;2022-10-22T13:04:18;1.60;;;0.60;;
16998;SDS011;10211;49.476;11.010;2022-10-22T13:06:48;3.50;;;0.90;;
16998;SDS011;10211;49.476;11.010;2022-10-22T13:09:18;1.13;;;1.03;;
16998;SDS011;10211;49.476;11.010;2022-10-22T13:11:48;2.23;;;0.60;;
16998;SDS011;10211;49.476;11.010;2022-10-22T13:14:17;0.80;;;0.53;;
16998;SDS011;10211;49.476;11.010;2022-10-22T13:17:04;2.30;;;0.90;;
16998;SDS011;10211;49.476;11.010;2022-10-22T13:19:36;1.03;;;0.57;;
16998;SDS011;10211;49.476;11.010;2022-10-22T13:24:55;1.63;;;0.60;;
16998;SDS011;10211;49.476;11.010;2022-10-22T13:27:24;0.77;;;0.45;;
16998;SDS011;10211;49.476;11.010;2022-10-22T13:29:52;1.45;;;0.60;;
16998;SDS011;10211;49.476;11.010;2022-10-22T13:32:24;0.70;;;0.40;;
16998;SDS011;10211;49.476;11.010;2022-10-22T13:34:56;2.90;;;0.45;;
16998;SDS011;10211;49.476;11.010;2022-10-22T13:37:24;0.50;;;0.50;;
16998;SDS011;10211;49.476;11.010;2022-10-22T13:39:52;0.40;;;0.40;;
16998;SDS011;10211;49.476;11.010;2022-10-22T13:42:19;3.90;;;0.45;;
16998;SDS011;10211;49.476;11.010;2022-10-22T13:44:46;2.15;;;0.40;;
16998;SDS011;10211;49.476;11.010;2022-10-22T13:47:16;0.77;;;0.60;;
16998;SDS011;10211;49.476;11.010;2022-10-22T13:52:28;1.55;;;0.52;;
16998;SDS011;10211;49.476;11.010;2022-10-22T13:55:01;0.20;;;0.20;;
16998;SDS011;10211;49.476;11.010;2022-10-22T13:57:35;0.50;;;0.30;;
16998;SDS011;10211;49.476;11.010;2022-10-22T14:00:02;0.27;;;0.20;;
16998;SDS011;10211;49.476;11.010;2022-10-22T14:02:31;4.93;;;0.50;;
16998;SDS011;10211;49.476;11.010;2022-10-22T14:04:57;0.73;;;0.40;;
16998;SDS011;10211;49.476;11.010;2022-10-22T14:07:28;3.70;;;0.40;;
16998;SDS011;10211;49.476;11.010;2022-10-22T14:09:55;1.80;;;0.53;;
16998;SDS011;10211;49.476;11.010;2022-10-22T14:12:22;0.47;;;0.40;;
16998;SDS011;10211;49.476;11.010;2022-10-22T14:14:49;0.90;;;0.50;;
16998;SDS011;10211;49.476;11.010;2022-10-22T14:17:16;0.40;;;0.40;;
16998;SDS011;10211;49.476;11.010;2022-10-22T14:19:45;1.97;;;0.50;;
16998;SDS011;10211;49.476;11.010;2022-10-22T14:22:14;0.87;;;0.50;;
16998;SDS011;10211;49.476;11.010;2022-10-22T14:24:42;0.53;;;0.40;;
16998;SDS011;10211;49.476;11.010;2022-10-22T14:27:10;0.43;;;0.40;;
16998;SDS011;10211;49.476;11.010;2022-10-22T14:29:37;3.20;;;0.67;;
16998;SDS011;10211;49.476;11.010;2022-10-22T14:32:05;1.43;;;0.60;;
16998;SDS011;10211;49.476;11.010;2022-10-22T14:34:37;4.93;;;0.60;;
16998;SDS011;10211;49.476;11.010;2022-10-22T14:37:07;0.40;;;0.40;;
16998;SDS011;10211;49.476;11.010;2022-10-22T14:39:40;0.93;;;0.50;;
16998;SDS011;10211;49.476;11.010;2022-10-22T14:42:08;0.50;;;0.40;;
16998;SDS011;10211;49.476;11.010;2022-10-22T14:44:36;2.20;;;0.50;;
16998;SDS011;10211;49.476;11.010;2022-10-22T14:47:03;3.63;;;0.40;;
16998;SDS011;10211;49.476;11.010;2022-10-22T14:49:29;1.47;;;0.70;;
16998;SDS011;10211;49.476;11.010;2022-10-22T14:51:56;1.53;;;0.43;;
16998;SDS011;10211;49.476;11.010;2022-10-22T14:54:25;1.50;;;0.43;;
16998;SDS011;10211;49.476;11.010;2022-10-22T14:56:52;2.53;;;0.57;;
16998;SDS011;10211;49.476;11.010;2022-10-22T14:59:19;0.60;;;0.47;;
16998;SDS011;10211;49.476;11.010;2022-10-22T15:01:46;0.50;;;0.50;;
16998;SDS011;10211;49.476;11.010;2022-10-22T15:04:12;1.17;;;0.70;;
16998;SDS011;10211;49.476;11.010;2022-10-22T15:06:40;1.00;;;0.40;;
16998;SDS011;10211;49.476;11.010;2022-10-22T15:09:07;1.30;;;0.57;;
16998;SDS011;10211;49.476;11.010;2022-10-22T15:11:35;3.87;;;0.70;;
16998;SDS011;10211;49.476;11.010;2022-10-22T15:14:18;1.43;;;0.70;;
16998;SDS011;10211;49.476;11.010;2022-10-22T15:16:46;1.47;;;0.60;;
16998;SDS011;10211;49.476;11.010;2022-10-22T15:19:13;3.40;;;0.63;;